KDTN/DTN METAR and TAF weather

Enter ICAO airport designator
Station Type Date Time Source
KDTN METAR 2019/04/25 15:53 UTC NOAA

KDTN 251553Z 25007KT 10SM SCT015 OVC022 19/16 A2981 RMK AO2 SLP093 T01940156


Station Type Date Time Source
KDTN Decoded METAR 2019/04/25 15:53 UTC NOAA

SHREVEPORT DOWNTOWN AIRPORT, LA, United States (KDTN) 32-32N 093-45W 53M
Apr 25, 2019 - 11:53 AM EDT / 2019.04.25 1553 UTC
Wind: from the WSW (250 degrees) at 8 MPH (7 KT):0
Visibility: 10 mile(s):0
Sky conditions: overcast
Temperature: 66.9 F (19.4 C)
Dew Point: 60.1 F (15.6 C)
Relative Humidity: 78%
Pressure (altimeter): 29.81 in. Hg (1009 hPa)
ob: KDTN 251553Z 25007KT 10SM SCT015 OVC022 19/16 A2981 RMK AO2 SLP093 T01940156
cycle: 16

Station Type Date Time Source
KDTN TAF UTC NOAA

Error!

Example: see airport list